Shanghai Dawn — 3FMN2 — position and weather

sailwx.info

Track history (hours):
 
Tides and Currents Weather Stations Pressure Air Temp Water Temp Dewpoint Dewpoint Depression Visibility Wind Speed Wind Dir Waves Ship Positions

Shanghai Dawn

Last reported at 2015-Jan-31 05:31 UTC. Time now 2015-Jan-31 07:06 UTC.
Position N 49°18' W 122°57'.

Length 246 m; draft 8.5 m.

Type: Ship. MMSI: 356075000.

Date/timePositionNaut miles runAvg speedWind from/ knotsBaromVisibWave heightAir tempDewpointWater temp
2015-Jan-31 05:31N 49°18' W 122°57'0 0.1
2015-Jan-31 04:28N 49°18' W 122°57'0 0.0
2015-Jan-31 03:31N 49°18' W 122°57'0 0.0
2015-Jan-31 02:31N 49°18' W 122°57'0 0.0
2015-Jan-31 01:31N 49°18' W 122°57'0 0.0
2015-Jan-31 00:31N 49°18' W 122°57'0 0.1
2015-Jan-30 23:31N 49°18' W 122°57'0 0.1
2015-Jan-30 22:31N 49°18' W 122°57'2 1.7
2015-Jan-30 21:34N 49°18' W 122°60'5 4.7
2015-Jan-30 20:33N 49°18' W 123°07'5 5.4
2015-Jan-30 19:34N 49°18' W 123°15'9 8.6
2015-Jan-30 18:34N 49°10' W 123°20'1211.9
2015-Jan-30 17:33N 48°59' W 123°14'1414.0
2015-Jan-30 16:33N 48°48' W 123°00'1212.3
2015-Jan-30 15:33N 48°40' W 123°14'1413.7
2015-Jan-30 14:33N 48°27' W 123°10'1110.7
2015-Jan-30 13:33N 48°21' W 123°24'7 6.7
2015-Jan-30 12:33N 48°15' W 123°27'7 6.5
2015-Jan-30 11:33N 48°13' W 123°37'6 6.4
2015-Jan-30 10:33N 48°13' W 123°47'7 6.7
2015-Jan-30 09:33N 48°14' W 123°57'7 6.5
2015-Jan-30 08:32N 48°17' W 124°06'7 6.6
2015-Jan-30 07:33N 48°20' W 124°14'7 6.7
2015-Jan-30 06:33N 48°22' W 124°24'7 6.7
2015-Jan-30 05:33N 48°25' W 124°33'7 6.7
2015-Jan-30 04:33N 48°28' W 124°42'7 7.3
2015-Jan-30 03:33N 48°29' W 124°53'7 7.3
2015-Jan-30 02:33N 48°29' W 125°04'8 8.1
2015-Jan-30 01:33N 48°27' W 125°16'7 7.3
2015-Jan-30 00:33N 48°24' W 125°26'7 7.0
2015-Jan-29 23:33N 48°20' W 125°34'8 8.2
2015-Jan-29 22:33N 48°15' W 125°44'10 9.5
2015-Jan-29 21:32N 48°10' W 125°56'17 7.9
2015-Jan-29 19:27N 47°60' W 126°16'  
Track history (hours):
 
Tides and Currents Weather Stations Pressure Air Temp Water Temp Dewpoint Dewpoint Depression Visibility Wind Speed Wind Dir Waves Ship Positions

Shanghai Dawn

Last reported at 2015-Jan-31 05:31 UTC. Time now 2015-Jan-31 07:06 UTC.
Position N 49°18' W 122°57'.

Length 246 m; draft 8.5 m.

Type: Ship. MMSI: 356075000.

Date/timePositionNaut miles runAvg speedWind from/ knotsBaromVisibWave heightAir tempDewpointWater temp
2015-Jan-31 05:31N 49°18' W 122°57'0 0.1
2015-Jan-31 04:28N 49°18' W 122°57'0 0.0
2015-Jan-31 03:31N 49°18' W 122°57'0 0.0
2015-Jan-31 02:31N 49°18' W 122°57'0 0.0
2015-Jan-31 01:31N 49°18' W 122°57'0 0.0
2015-Jan-31 00:31N 49°18' W 122°57'0 0.1
2015-Jan-30 23:31N 49°18' W 122°57'0 0.1
2015-Jan-30 22:31N 49°18' W 122°57'2 1.7
2015-Jan-30 21:34N 49°18' W 122°60'5 4.7
2015-Jan-30 20:33N 49°18' W 123°07'5 5.4
2015-Jan-30 19:34N 49°18' W 123°15'9 8.6
2015-Jan-30 18:34N 49°10' W 123°20'1211.9
2015-Jan-30 17:33N 48°59' W 123°14'1414.0
2015-Jan-30 16:33N 48°48' W 123°00'1212.3
2015-Jan-30 15:33N 48°40' W 123°14'1413.7
2015-Jan-30 14:33N 48°27' W 123°10'1110.7
2015-Jan-30 13:33N 48°21' W 123°24'7 6.7
2015-Jan-30 12:33N 48°15' W 123°27'7 6.5
2015-Jan-30 11:33N 48°13' W 123°37'6 6.4
2015-Jan-30 10:33N 48°13' W 123°47'7 6.7
2015-Jan-30 09:33N 48°14' W 123°57'7 6.5
2015-Jan-30 08:32N 48°17' W 124°06'7 6.6
2015-Jan-30 07:33N 48°20' W 124°14'7 6.7
2015-Jan-30 06:33N 48°22' W 124°24'7 6.7
2015-Jan-30 05:33N 48°25' W 124°33'7 6.7
2015-Jan-30 04:33N 48°28' W 124°42'7 7.3
2015-Jan-30 03:33N 48°29' W 124°53'7 7.3
2015-Jan-30 02:33N 48°29' W 125°04'8 8.1
2015-Jan-30 01:33N 48°27' W 125°16'7 7.3
2015-Jan-30 00:33N 48°24' W 125°26'7 7.0
2015-Jan-29 23:33N 48°20' W 125°34'8 8.2
2015-Jan-29 22:33N 48°15' W 125°44'10 9.5
2015-Jan-29 21:32N 48°10' W 125°56'17 7.9
2015-Jan-29 19:27N 47°60' W 126°16'  

Dump ship's entire track history